createdAt,value
2022-12-09T00:01:31.343Z,98310.78
2022-12-09T00:03:58.752Z,98314.09
2022-12-09T00:06:28.076Z,98308.06
2022-12-09T00:08:56.613Z,98299.50
2022-12-09T00:11:24.879Z,98291.75
2022-12-09T00:13:53.274Z,98279.41
2022-12-09T00:16:21.180Z,98266.84
2022-12-09T00:18:47.916Z,98265.19
2022-12-09T00:21:15.272Z,98258.91
2022-12-09T00:23:41.955Z,98250.59
2022-12-09T00:26:08.558Z,98242.50
2022-12-09T00:28:35.297Z,98248.44
2022-12-09T00:31:02.641Z,98250.84
2022-12-09T00:33:34.091Z,98245.09
2022-12-09T00:36:09.857Z,98237.53
2022-12-09T00:38:37.262Z,98234.69
2022-12-09T00:41:04.583Z,98239.94
2022-12-09T00:43:31.255Z,98246.59
2022-12-09T00:45:58.174Z,98253.97
2022-12-09T00:48:26.213Z,98260.16
2022-12-09T00:50:52.931Z,98268.56
2022-12-09T00:53:19.606Z,98265.47
2022-12-09T00:55:46.315Z,98263.25
2022-12-09T00:58:14.047Z,98263.50
2022-12-09T01:00:41.032Z,98272.88
2022-12-09T01:03:12.823Z,98281.09
2022-12-09T01:05:40.358Z,98289.88
2022-12-09T01:08:06.972Z,98295.38
2022-12-09T01:10:34.418Z,98299.28
2022-12-09T01:13:01.172Z,98305.09
2022-12-09T01:15:27.913Z,98177.22
2022-12-09T01:17:54.686Z,98168.34
2022-12-09T01:20:21.282Z,98158.75
2022-12-09T01:22:47.758Z,98161.63
2022-12-09T01:25:14.664Z,98166.75
2022-12-09T01:27:41.897Z,98163.75
2022-12-09T01:30:11.915Z,98170.38
2022-12-09T01:32:38.818Z,98165.78
2022-12-09T01:35:06.181Z,98168.63
2022-12-09T01:37:34.158Z,98168.06
2022-12-09T01:40:00.837Z,98167.84
2022-12-09T01:42:27.660Z,98161.13
2022-12-09T01:45:22.071Z,98171.56
2022-12-09T01:47:52.736Z,98160.16
2022-12-09T01:50:19.576Z,98153.78
2022-12-09T01:52:47.558Z,98151.66
2022-12-09T01:55:14.665Z,98141.91
2022-12-09T01:57:42.974Z,98145.47
2022-12-09T02:00:10.391Z,98151.66
2022-12-09T02:02:38.296Z,98144.28
2022-12-09T02:05:05.980Z,98150.06
2022-12-09T02:07:33.444Z,98136.75
2022-12-09T02:10:00.286Z,98139.25
2022-12-09T02:12:46.847Z,98123.88
2022-12-09T02:15:30.827Z,98119.88
2022-12-09T02:18:01.803Z,98112.53
2022-12-09T02:20:38.816Z,98096.88
2022-12-09T02:23:12.212Z,98108.28
2022-12-09T02:26:07.382Z,98100.94
2022-12-09T02:28:52.697Z,98103.09
2022-12-09T02:31:40.786Z,98094.31
2022-12-09T02:34:22.257Z,98104.56
2022-12-09T02:37:16.971Z,98108.38
2022-12-09T02:40:05.777Z,98110.25
2022-12-09T02:42:35.863Z,98104.91
2022-12-09T02:45:06.300Z,98101.63
2022-12-09T02:47:36.851Z,98102.69
2022-12-09T02:50:08.654Z,98101.28
2022-12-09T02:52:35.926Z,98093.69
2022-12-09T02:55:07.027Z,98087.75
2022-12-09T02:57:36.036Z,98089.91
2022-12-09T03:00:04.909Z,98079.47
2022-12-09T03:02:35.929Z,98072.94
2022-12-09T03:05:24.532Z,98077.31
2022-12-09T03:08:46.739Z,98068.19
2022-12-09T03:11:18.696Z,98057.63
2022-12-09T03:14:04.495Z,98055.34
2022-12-09T03:16:36.054Z,98052.97
2022-12-09T03:19:20.706Z,98041.97
2022-12-09T03:21:50.006Z,98025.50
2022-12-09T03:24:20.827Z,98026.56
2022-12-09T03:26:48.212Z,98023.03
2022-12-09T03:29:19.873Z,98026.31
2022-12-09T03:31:48.643Z,98036.25
2022-12-09T03:34:20.037Z,98034.03
2022-12-09T03:36:49.364Z,98026.06
2022-12-09T03:39:20.459Z,98036.63
2022-12-09T03:41:55.650Z,98044.81
2022-12-09T03:44:30.630Z,98033.78
2022-12-09T03:46:57.783Z,98026.31
2022-12-09T03:49:24.290Z,98026.31
2022-12-09T03:51:57.342Z,98023.84
2022-12-09T03:54:40.855Z,98023.84
2022-12-09T03:57:17.031Z,98026.13
2022-12-09T03:59:51.485Z,98027.28
2022-12-09T04:02:18.503Z,98029.38
2022-12-09T04:04:45.177Z,98035.69
2022-12-09T04:07:11.922Z,98037.31
2022-12-09T04:09:38.834Z,98022.56
2022-12-09T04:12:05.587Z,98009.75
2022-12-09T04:14:32.303Z,98017.59
2022-12-09T04:16:59.408Z,98007.41
2022-12-09T04:19:26.135Z,98010.84
2022-12-09T04:21:52.788Z,98010.59
2022-12-09T04:24:19.540Z,98007.97
2022-12-09T04:26:46.815Z,98000.66
2022-12-09T04:29:13.825Z,97999.00
2022-12-09T04:31:40.593Z,97997.69
2022-12-09T04:34:09.953Z,97993.41
2022-12-09T04:36:37.318Z,97989.97
2022-12-09T04:39:04.220Z,97977.06
2022-12-09T04:41:31.018Z,97972.69
2022-12-09T04:43:57.586Z,97972.28
2022-12-09T04:46:24.161Z,97968.50
2022-12-09T04:48:50.796Z,97969.44
2022-12-09T04:51:18.281Z,97964.66
2022-12-09T04:53:45.217Z,97965.38
2022-12-09T04:56:16.529Z,97952.50
2022-12-09T04:58:43.031Z,97948.38
2022-12-09T05:01:13.230Z,97951.84
2022-12-09T05:03:40.591Z,97942.47
2022-12-09T05:06:11.007Z,97943.03
2022-12-09T05:08:38.599Z,97935.84
2022-12-09T05:11:06.239Z,97928.16
2022-12-09T05:13:33.734Z,97925.78
2022-12-09T05:16:09.290Z,97928.00
2022-12-09T05:18:38.941Z,97931.59
2022-12-09T05:21:09.929Z,97936.59
2022-12-09T05:23:37.149Z,97929.78
2022-12-09T05:26:10.051Z,97928.59
2022-12-09T05:28:37.203Z,97934.38
2022-12-09T05:31:06.436Z,97933.13
2022-12-09T05:33:33.579Z,97929.47
2022-12-09T05:36:00.660Z,97921.09
2022-12-09T05:38:27.600Z,97924.00
2022-12-09T05:40:54.733Z,97918.44
2022-12-09T05:43:21.193Z,97915.69
2022-12-09T05:45:47.903Z,97905.81
2022-12-09T05:48:14.856Z,97911.72
2022-12-09T05:50:41.672Z,97915.47
2022-12-09T05:53:08.492Z,97917.38
2022-12-09T05:55:35.087Z,97914.75
2022-12-09T05:58:02.105Z,97903.41
2022-12-09T06:00:28.626Z,97905.19
2022-12-09T06:02:55.609Z,97905.75
2022-12-09T06:05:22.847Z,97895.31
2022-12-09T06:07:49.844Z,97896.94
2022-12-09T06:10:17.369Z,97900.13
2022-12-09T06:12:44.235Z,97898.09
2022-12-09T06:15:12.756Z,97889.06
2022-12-09T06:17:42.547Z,97883.44
2022-12-09T06:20:09.918Z,97885.94
2022-12-09T06:22:36.983Z,97881.38
2022-12-09T06:25:04.549Z,97874.16
2022-12-09T06:27:31.423Z,97872.22
2022-12-09T06:29:58.347Z,97874.72
2022-12-09T06:32:25.256Z,97867.81
2022-12-09T06:34:52.251Z,97864.94
2022-12-09T06:37:18.854Z,97873.47
2022-12-09T06:39:45.732Z,97870.72
2022-12-09T06:42:12.635Z,97873.66
2022-12-09T06:44:38.949Z,97871.47
2022-12-09T06:47:06.823Z,97865.44
2022-12-09T06:49:33.737Z,97869.03
2022-12-09T06:52:00.628Z,97864.50
2022-12-09T06:54:27.832Z,97864.63
2022-12-09T06:56:54.496Z,97860.22
2022-12-09T06:59:21.235Z,97869.44
2022-12-09T07:01:47.891Z,97865.63
2022-12-09T07:04:15.041Z,97868.78
2022-12-09T07:06:44.481Z,97863.03
2022-12-09T07:09:13.908Z,97862.88
2022-12-09T07:11:40.960Z,97851.34
2022-12-09T07:14:07.600Z,97845.16
2022-12-09T07:16:35.101Z,97844.91
2022-12-09T07:19:02.802Z,97845.03
2022-12-09T07:21:29.777Z,97839.53
2022-12-09T07:24:00.239Z,97832.50
2022-12-09T07:26:26.917Z,97829.63
2022-12-09T07:28:53.777Z,97832.25
2022-12-09T07:31:22.234Z,97829.34
2022-12-09T07:33:49.993Z,97833.63
2022-12-09T07:36:20.969Z,97831.41
2022-12-09T07:38:48.293Z,97828.97
2022-12-09T07:41:14.855Z,97820.41
2022-12-09T07:43:41.607Z,97814.38
2022-12-09T07:46:08.615Z,97813.25
2022-12-09T07:48:36.008Z,97811.06
2022-12-09T07:51:04.159Z,97801.16
2022-12-09T07:53:35.244Z,97800.59
2022-12-09T07:56:06.671Z,97793.53
2022-12-09T07:58:34.272Z,97786.91
2022-12-09T08:01:08.881Z,97784.81
2022-12-09T08:03:36.712Z,97773.47
2022-12-09T08:06:04.277Z,97761.09
2022-12-09T08:08:32.984Z,97741.00
2022-12-09T08:11:13.787Z,97735.97
2022-12-09T08:13:41.143Z,97729.88
2022-12-09T08:16:10.790Z,97726.84
2022-12-09T08:18:38.200Z,97692.84
2022-12-09T08:21:07.545Z,97697.88
2022-12-09T08:23:34.400Z,97694.69
2022-12-09T08:26:01.793Z,97695.13
2022-12-09T08:28:29.869Z,97692.50
2022-12-09T08:30:57.370Z,97670.03
2022-12-09T08:33:25.407Z,97661.88
2022-12-09T08:35:52.391Z,97666.50
2022-12-09T08:38:19.187Z,97652.13
2022-12-09T08:40:46.331Z,97648.31
2022-12-09T08:43:12.862Z,97644.47
2022-12-09T08:45:42.410Z,97659.38
2022-12-09T08:48:09.579Z,97647.63
2022-12-09T08:50:36.354Z,97641.03
2022-12-09T08:53:03.270Z,97634.00
2022-12-09T08:55:30.143Z,97640.13
2022-12-09T08:57:57.320Z,97616.00
2022-12-09T09:00:24.249Z,97601.19
2022-12-09T09:02:51.050Z,97581.56
2022-12-09T09:05:18.720Z,97582.28
2022-12-09T09:07:45.782Z,97588.34
2022-12-09T09:10:13.390Z,97590.00
2022-12-09T09:12:43.613Z,97591.84
2022-12-09T09:15:11.625Z,97596.09
2022-12-09T09:17:38.626Z,97594.31
2022-12-09T09:20:06.234Z,97594.06
2022-12-09T09:22:35.307Z,97598.06
2022-12-09T09:25:02.341Z,97590.75
2022-12-09T09:27:29.212Z,97588.00
2022-12-09T09:29:55.769Z,97570.75
2022-12-09T09:32:22.436Z,97564.25
2022-12-09T09:34:49.368Z,97550.47
2022-12-09T09:37:17.130Z,97558.97
2022-12-09T09:39:43.926Z,97563.25
2022-12-09T09:42:17.269Z,97551.66
2022-12-09T09:44:45.485Z,97550.53
2022-12-09T09:47:16.808Z,97531.03
2022-12-09T09:50:00.763Z,97527.44
2022-12-09T09:52:29.798Z,97516.59
2022-12-09T09:54:57.871Z,97520.84
2022-12-09T09:57:33.305Z,97518.72
2022-12-09T10:00:15.745Z,97522.16
2022-12-09T10:02:51.415Z,97523.00
2022-12-09T10:05:30.419Z,97526.94
2022-12-09T10:08:20.917Z,97513.78
2022-12-09T10:11:13.389Z,97528.91
2022-12-09T10:13:48.421Z,97522.69
2022-12-09T10:16:27.980Z,97503.34
2022-12-09T10:19:09.785Z,97489.69
2022-12-09T10:21:41.540Z,97497.56
2022-12-09T10:24:20.601Z,97474.78
2022-12-09T10:26:57.072Z,97471.00
2022-12-09T10:29:35.742Z,97467.03
2022-12-09T10:32:02.816Z,97464.44
2022-12-09T10:34:30.315Z,97473.94
2022-12-09T10:36:57.224Z,97479.50
2022-12-09T10:39:23.604Z,97475.88
2022-12-09T10:41:57.242Z,97476.72
2022-12-09T10:44:25.507Z,97481.69
2022-12-09T10:47:06.487Z,97472.47
2022-12-09T10:49:35.912Z,97470.34
2022-12-09T10:52:03.097Z,97457.97
2022-12-09T10:54:36.499Z,97445.13
2022-12-09T10:57:12.495Z,97447.41
2022-12-09T10:59:40.861Z,97435.53
2022-12-09T11:02:10.319Z,97432.25
2022-12-09T11:04:40.562Z,97420.03
2022-12-09T11:07:07.566Z,97413.84
2022-12-09T11:09:37.852Z,97411.47
2022-12-09T11:12:07.636Z,97405.81
2022-12-09T11:14:40.545Z,97389.50
2022-12-09T11:17:31.615Z,97395.78
2022-12-09T11:20:17.637Z,97381.75
2022-12-09T11:22:45.892Z,97366.22
2022-12-09T11:25:13.000Z,97356.38
2022-12-09T11:27:41.469Z,97355.50
2022-12-09T11:30:30.747Z,97367.84
2022-12-09T11:33:06.243Z,97361.22
2022-12-09T11:35:45.104Z,97344.75
2022-12-09T11:38:34.602Z,97330.59
2022-12-09T11:41:03.379Z,97327.78
2022-12-09T11:43:35.251Z,97322.94
2022-12-09T11:46:26.680Z,97313.28
2022-12-09T11:48:55.445Z,97285.81
2022-12-09T11:51:28.749Z,97265.50
2022-12-09T11:54:18.875Z,97263.28
2022-12-09T11:56:45.366Z,97269.50
2022-12-09T11:59:15.207Z,97267.63
2022-12-09T12:02:12.012Z,97264.00
2022-12-09T12:04:46.413Z,97262.94
2022-12-09T12:07:32.311Z,97267.50
2022-12-09T12:09:58.843Z,97261.94
2022-12-09T12:12:37.511Z,97253.91
2022-12-09T12:15:16.454Z,97256.97
2022-12-09T12:17:50.148Z,97248.19
2022-12-09T12:20:16.676Z,97256.00
2022-12-09T12:23:06.772Z,97258.97
2022-12-09T12:25:44.527Z,97247.19
2022-12-09T12:28:32.040Z,97251.81
2022-12-09T12:31:27.410Z,97249.97
2022-12-09T12:34:24.097Z,97257.31
2022-12-09T12:37:43.208Z,97246.91
2022-12-09T12:40:40.150Z,97240.00
2022-12-09T12:43:27.797Z,97242.03
2022-12-09T12:46:04.186Z,97249.81
2022-12-09T12:49:15.857Z,97236.09
2022-12-09T12:51:55.193Z,97239.09
2022-12-09T12:54:30.438Z,97240.47
2022-12-09T12:56:56.966Z,97247.69
2022-12-09T12:59:56.263Z,97252.16
2022-12-09T13:02:39.409Z,97257.25
2022-12-09T13:05:22.113Z,97260.69
2022-12-09T13:08:01.893Z,97258.13
2022-12-09T13:10:40.375Z,97261.31
2022-12-09T13:13:18.683Z,97274.72
2022-12-09T13:15:50.137Z,97276.09
2022-12-09T13:18:23.042Z,97268.78
2022-12-09T13:20:58.160Z,97265.72
2022-12-09T13:23:43.308Z,97270.84
2022-12-09T13:26:39.767Z,97275.47
2022-12-09T13:29:06.721Z,97277.28
2022-12-09T13:31:36.820Z,97279.38
2022-12-09T13:34:18.519Z,97280.56
2022-12-09T13:36:47.732Z,97284.16
2022-12-09T13:39:39.137Z,97285.53
2022-12-09T13:42:25.891Z,97278.63
2022-12-09T13:45:05.593Z,97284.88
2022-12-09T13:47:36.467Z,97283.72
2022-12-09T13:50:05.696Z,97291.25
2022-12-09T13:52:46.536Z,97291.72
2022-12-09T13:55:47.115Z,97291.19
2022-12-09T13:58:35.219Z,97280.25
2022-12-09T14:01:04.677Z,97288.31
2022-12-09T14:03:35.693Z,97285.75
2022-12-09T14:06:15.614Z,97287.56
2022-12-09T14:08:48.804Z,97275.53
2022-12-09T14:11:36.990Z,97275.53
2022-12-09T14:14:24.660Z,97281.41
2022-12-09T14:16:56.935Z,97286.88
2022-12-09T14:19:26.058Z,97288.69
2022-12-09T14:22:17.708Z,97292.38
2022-12-09T14:24:51.762Z,97298.03
2022-12-09T14:27:32.139Z,97305.88
2022-12-09T14:30:18.822Z,97306.59
2022-12-09T14:32:56.010Z,97315.16
2022-12-09T14:35:46.278Z,97325.97
2022-12-09T14:39:22.465Z,97320.03
2022-12-09T14:42:03.455Z,97310.75
2022-12-09T14:45:03.071Z,97337.94
2022-12-09T14:47:32.874Z,97337.00
2022-12-09T14:50:14.478Z,97337.69
2022-12-09T14:53:00.524Z,97339.81
2022-12-09T14:55:29.013Z,97344.63
2022-12-09T14:57:58.246Z,97347.59
2022-12-09T15:00:37.033Z,97345.31
2022-12-09T15:03:39.389Z,97350.72
2022-12-09T15:06:13.098Z,97348.97
2022-12-09T15:08:41.261Z,97353.56
2022-12-09T15:11:18.245Z,97368.50
2022-12-09T15:13:47.878Z,97367.03
2022-12-09T15:16:18.092Z,97363.91
2022-12-09T15:18:45.405Z,97366.56
2022-12-09T15:21:26.349Z,97361.97
2022-12-09T15:23:52.842Z,97365.06
2022-12-09T15:26:19.428Z,97366.41
2022-12-09T15:28:50.667Z,97377.53
2022-12-09T15:31:22.473Z,97373.09
2022-12-09T15:33:51.586Z,97735.88
2022-12-09T15:36:38.828Z,97738.66
2022-12-09T15:39:07.514Z,97738.84
2022-12-09T15:41:38.505Z,97735.88
2022-12-09T15:44:11.132Z,97733.91
2022-12-09T15:46:41.735Z,97733.44
2022-12-09T15:49:11.904Z,97744.78
2022-12-09T15:51:42.500Z,97746.59
2022-12-09T15:54:14.786Z,97746.41
2022-12-09T15:56:48.946Z,97752.28
2022-12-09T15:59:37.069Z,97749.81
2022-12-09T16:02:03.997Z,97750.63
2022-12-09T16:04:37.935Z,97750.81
2022-12-09T16:07:06.202Z,97749.66
2022-12-09T16:09:32.948Z,97744.06
2022-12-09T16:11:59.680Z,97753.75
2022-12-09T16:14:26.342Z,97756.06
2022-12-09T16:17:03.723Z,97760.19
2022-12-09T16:19:33.120Z,97707.31
2022-12-09T16:22:09.180Z,97708.63
2022-12-09T16:25:13.132Z,97705.81
2022-12-09T16:27:33.438Z,97711.06
2022-12-09T16:30:12.615Z,97713.69
2022-12-09T16:32:47.425Z,97707.13
2022-12-09T16:35:16.846Z,97697.13
2022-12-09T16:38:12.500Z,97699.44
2022-12-09T16:40:45.175Z,97687.41
2022-12-09T16:43:17.277Z,97692.69
2022-12-09T16:46:05.035Z,97690.69
2022-12-09T16:48:31.464Z,97700.06
2022-12-09T16:51:10.926Z,97703.84
2022-12-09T16:53:49.599Z,97695.81
2022-12-09T16:56:27.957Z,97697.63
2022-12-09T16:58:54.612Z,97687.56
2022-12-09T17:01:24.546Z,97606.63
2022-12-09T17:03:56.111Z,97598.75
2022-12-09T17:06:22.438Z,97575.09
2022-12-09T17:08:48.780Z,97577.41
2022-12-09T17:11:15.227Z,97575.94
2022-12-09T17:13:41.599Z,97574.94
2022-12-09T17:16:08.535Z,97570.00
2022-12-09T17:18:35.182Z,97567.69
2022-12-09T17:21:19.728Z,97563.44
2022-12-09T17:23:46.882Z,97568.69
2022-12-09T17:26:15.828Z,97571.78
2022-12-09T17:28:43.269Z,97572.13
2022-12-09T17:31:13.150Z,97579.84
2022-12-09T17:33:39.897Z,97572.44
2022-12-09T17:36:07.256Z,97566.38
2022-12-09T17:38:33.996Z,97577.69
2022-12-09T17:41:09.247Z,97573.63
2022-12-09T17:43:36.054Z,97571.63
2022-12-09T17:46:04.752Z,97579.69
2022-12-09T17:48:32.807Z,97567.53
2022-12-09T17:50:59.208Z,97573.63
2022-12-09T17:53:25.526Z,97572.78
2022-12-09T17:55:51.850Z,97578.22
2022-12-09T17:58:18.229Z,97570.66
2022-12-09T18:00:44.715Z,97567.03
2022-12-09T18:03:17.912Z,97564.41
2022-12-09T18:05:48.680Z,97565.88
2022-12-09T18:08:15.386Z,97573.94
2022-12-09T18:10:41.809Z,97575.41
2022-12-09T18:13:08.195Z,97573.63
2022-12-09T18:15:36.564Z,97578.03
2022-12-09T18:18:03.120Z,97583.16
2022-12-09T18:20:29.563Z,97583.63
2022-12-09T18:22:55.891Z,97588.88
2022-12-09T18:25:22.219Z,97584.94
2022-12-09T18:27:48.548Z,97587.41
2022-12-09T18:30:14.872Z,97592.31
2022-12-09T18:32:41.283Z,97591.50
2022-12-09T18:35:08.009Z,97589.69
2022-12-09T18:37:34.340Z,97591.16
2022-12-09T18:40:00.854Z,97595.28
2022-12-09T18:42:27.493Z,97599.22
2022-12-09T18:44:54.226Z,97595.28
2022-12-09T18:47:20.678Z,97591.00
2022-12-09T18:49:47.191Z,97591.34
2022-12-09T18:52:13.947Z,97589.06
2022-12-09T18:54:40.550Z,97588.88
2022-12-09T18:57:07.222Z,97591.34
2022-12-09T18:59:33.623Z,97592.50
2022-12-09T19:01:59.948Z,97587.91
2022-12-09T19:04:28.676Z,97586.41
2022-12-09T19:06:57.760Z,97590.03
2022-12-09T19:09:30.372Z,97584.13
2022-12-09T19:11:56.781Z,97588.06
2022-12-09T19:14:23.738Z,97592.00
2022-12-09T19:16:51.728Z,97590.84
2022-12-09T19:19:22.636Z,97594.81
2022-12-09T19:21:49.967Z,97609.41
2022-12-09T19:24:22.437Z,97604.31
2022-12-09T19:26:49.262Z,97611.38
2022-12-09T19:29:16.151Z,97610.56
2022-12-09T19:31:46.185Z,97612.19
2022-12-09T19:34:16.070Z,97605.16
2022-12-09T19:36:44.038Z,97602.53
2022-12-09T19:39:12.163Z,97599.06
2022-12-09T19:41:38.921Z,97600.53
2022-12-09T19:44:05.730Z,97599.06
2022-12-09T19:46:33.511Z,97609.22
2022-12-09T19:49:00.596Z,97618.94
2022-12-09T19:51:27.525Z,97620.91
2022-12-09T19:53:56.270Z,97619.94
2022-12-09T19:56:23.440Z,97621.25
2022-12-09T19:58:50.437Z,97623.06
2022-12-09T20:01:23.824Z,97620.91
2022-12-09T20:04:13.647Z,97627.81
2022-12-09T20:06:48.871Z,97630.75
2022-12-09T20:09:17.184Z,97631.91
2022-12-09T20:11:43.992Z,97634.38
2022-12-09T20:14:13.153Z,97636.69
2022-12-09T20:16:39.894Z,97628.81
2022-12-09T20:19:06.459Z,97629.13
2022-12-09T20:21:32.860Z,97627.94
2022-12-09T20:24:01.365Z,97631.75
2022-12-09T20:26:29.930Z,97633.03
2022-12-09T20:28:57.889Z,97636.47
2022-12-09T20:31:26.766Z,97642.91
2022-12-09T20:34:01.704Z,97649.78
2022-12-09T20:36:30.810Z,97638.97
2022-12-09T20:38:59.858Z,97645.34
2022-12-09T20:41:27.322Z,97646.19
2022-12-09T20:43:59.274Z,97642.59
2022-12-09T20:46:32.785Z,97641.59
2022-12-09T20:49:00.757Z,97638.16
2022-12-09T20:51:37.521Z,97635.34
2022-12-09T20:54:04.572Z,97638.63
2022-12-09T20:56:31.741Z,97637.66
2022-12-09T20:58:58.633Z,97638.16
2022-12-09T21:01:30.135Z,97634.19
2022-12-09T21:03:58.463Z,97627.97
2022-12-09T21:06:27.622Z,97628.44
2022-12-09T21:08:53.953Z,97629.28
2022-12-09T21:11:22.906Z,97617.63
2022-12-09T21:13:51.881Z,97615.66
2022-12-09T21:16:24.017Z,97618.94
2022-12-09T21:18:51.848Z,97605.66
2022-12-09T21:21:19.402Z,97613.34
2022-12-09T21:23:46.826Z,97608.91
2022-12-09T21:26:18.220Z,97608.09
2022-12-09T21:28:46.299Z,97611.88
2022-12-09T21:31:24.527Z,97617.13
2022-12-09T21:33:53.243Z,97615.97
2022-12-09T21:36:28.999Z,97620.28
2022-12-09T21:38:55.985Z,97623.53
2022-12-09T21:41:25.100Z,97631.09
2022-12-09T21:43:52.295Z,97629.28
2022-12-09T21:46:20.919Z,97618.78
2022-12-09T21:48:52.040Z,97624.53
2022-12-09T21:51:19.570Z,97626.00
2022-12-09T21:53:46.280Z,97618.28
2022-12-09T21:56:20.482Z,97627.31
2022-12-09T21:58:49.058Z,97632.41
2022-12-09T22:01:24.980Z,97643.28
2022-12-09T22:03:51.855Z,97640.63
2022-12-09T22:06:18.543Z,97637.34
2022-12-09T22:08:45.623Z,97642.25
2022-12-09T22:11:13.731Z,97654.09
2022-12-09T22:13:40.367Z,97648.50
2022-12-09T22:16:07.616Z,97643.91
2022-12-09T22:18:34.534Z,97652.94
2022-12-09T22:21:24.822Z,97645.06
2022-12-09T22:23:58.031Z,97639.78
2022-12-09T22:26:25.272Z,97654.41
2022-12-09T22:28:52.193Z,97648.84
2022-12-09T22:31:24.025Z,97661.84
2022-12-09T22:33:52.781Z,97665.09
2022-12-09T22:36:19.728Z,97663.97
2022-12-09T22:38:46.717Z,97662.31
2022-12-09T22:41:16.660Z,97673.66
2022-12-09T22:43:43.556Z,97680.06
2022-12-09T22:46:11.347Z,97678.56
2022-12-09T22:48:39.398Z,97682.34
2022-12-09T22:51:08.647Z,97693.19
2022-12-09T22:53:35.385Z,97689.56
2022-12-09T22:56:01.955Z,97693.69
2022-12-09T22:58:28.511Z,97696.66
2022-12-09T23:00:55.339Z,97700.09
2022-12-09T23:03:21.737Z,97710.28
2022-12-09T23:05:48.188Z,97716.53
2022-12-09T23:08:14.976Z,97713.91
2022-12-09T23:10:42.065Z,97711.78
2022-12-09T23:13:08.680Z,97716.84
2022-12-09T23:15:35.323Z,97721.28
2022-12-09T23:18:01.882Z,97722.09
2022-12-09T23:20:28.653Z,97728.69
2022-12-09T23:22:55.187Z,97742.28
2022-12-09T23:25:21.540Z,97758.06
2022-12-09T23:27:47.852Z,97763.31
2022-12-09T23:30:14.294Z,97766.94
2022-12-09T23:32:40.656Z,97758.22
2022-12-09T23:35:07.772Z,97757.56
2022-12-09T23:37:34.327Z,97749.66
2022-12-09T23:40:00.695Z,97740.97
2022-12-09T23:42:27.098Z,97745.41
2022-12-09T23:44:53.445Z,97734.91
2022-12-09T23:47:19.872Z,97729.97
2022-12-09T23:49:46.155Z,97729.78
2022-12-09T23:52:12.484Z,97733.59
2022-12-09T23:54:39.268Z,97723.72
2022-12-09T23:57:05.667Z,97713.38
2022-12-09T23:59:32.414Z,97716.81
